sensor_id;sensor_type;location;lat;lon;timestamp;temperature;humidity
4433;DHT22;2229;48.708;9.706;2023-03-01T00:02:23;0.60;90.90
4433;DHT22;2229;48.708;9.706;2023-03-01T00:04:51;0.70;91.00
4433;DHT22;2229;48.708;9.706;2023-03-01T00:07:18;0.50;91.00
4433;DHT22;2229;48.708;9.706;2023-03-01T00:09:45;0.60;91.20
4433;DHT22;2229;48.708;9.706;2023-03-01T00:12:14;0.90;91.40
4433;DHT22;2229;48.708;9.706;2023-03-01T00:14:41;0.30;91.10
4433;DHT22;2229;48.708;9.706;2023-03-01T00:17:10;0.30;91.10
4433;DHT22;2229;48.708;9.706;2023-03-01T00:19:37;0.40;91.40
4433;DHT22;2229;48.708;9.706;2023-03-01T00:22:05;0.30;91.20
4433;DHT22;2229;48.708;9.706;2023-03-01T00:24:32;0.30;91.10
4433;DHT22;2229;48.708;9.706;2023-03-01T00:27:00;-0.20;91.00
4433;DHT22;2229;48.708;9.706;2023-03-01T00:29:29;0.70;91.60
4433;DHT22;2229;48.708;9.706;2023-03-01T00:31:58;0.80;91.50
4433;DHT22;2229;48.708;9.706;2023-03-01T00:34:29;0.20;91.30
4433;DHT22;2229;48.708;9.706;2023-03-01T00:36:56;0.00;91.60
4433;DHT22;2229;48.708;9.706;2023-03-01T00:39:31;0.10;91.40
4433;DHT22;2229;48.708;9.706;2023-03-01T00:41:59;0.60;91.60
4433;DHT22;2229;48.708;9.706;2023-03-01T00:44:27;0.10;91.60
4433;DHT22;2229;48.708;9.706;2023-03-01T00:46:55;0.30;91.80
4433;DHT22;2229;48.708;9.706;2023-03-01T00:49:22;-0.20;91.70
4433;DHT22;2229;48.708;9.706;2023-03-01T00:51:56;-0.30;91.70
4433;DHT22;2229;48.708;9.706;2023-03-01T00:54:24;-0.10;92.30
4433;DHT22;2229;48.708;9.706;2023-03-01T00:56:51;-0.40;91.90
4433;DHT22;2229;48.708;9.706;2023-03-01T00:59:19;-0.30;92.20
4433;DHT22;2229;48.708;9.706;2023-03-01T01:01:46;0.10;92.40
4433;DHT22;2229;48.708;9.706;2023-03-01T01:04:15;-0.30;92.10
4433;DHT22;2229;48.708;9.706;2023-03-01T01:06:44;-0.10;92.70
4433;DHT22;2229;48.708;9.706;2023-03-01T01:09:14;-0.60;92.40
4433;DHT22;2229;48.708;9.706;2023-03-01T01:11:44;-0.30;92.70
4433;DHT22;2229;48.708;9.706;2023-03-01T01:14:11;-0.20;92.80
4433;DHT22;2229;48.708;9.706;2023-03-01T01:16:39;-0.10;92.80
4433;DHT22;2229;48.708;9.706;2023-03-01T01:19:10;-0.10;92.90
4433;DHT22;2229;48.708;9.706;2023-03-01T01:21:39;-0.10;92.80
4433;DHT22;2229;48.708;9.706;2023-03-01T01:24:12;0.00;92.90
4433;DHT22;2229;48.708;9.706;2023-03-01T01:26:39;0.10;92.90
4433;DHT22;2229;48.708;9.706;2023-03-01T01:29:08;0.10;92.70
4433;DHT22;2229;48.708;9.706;2023-03-01T01:31:40;0.10;92.90
4433;DHT22;2229;48.708;9.706;2023-03-01T01:34:13;-0.10;92.90
4433;DHT22;2229;48.708;9.706;2023-03-01T01:36:42;0.10;93.10
4433;DHT22;2229;48.708;9.706;2023-03-01T01:39:12;0.20;93.20
4433;DHT22;2229;48.708;9.706;2023-03-01T01:41:41;0.10;93.00
4433;DHT22;2229;48.708;9.706;2023-03-01T01:44:12;0.60;93.30
4433;DHT22;2229;48.708;9.706;2023-03-01T01:46:41;-0.10;93.10
4433;DHT22;2229;48.708;9.706;2023-03-01T01:49:17;0.10;93.20
4433;DHT22;2229;48.708;9.706;2023-03-01T01:51:49;0.10;93.20
4433;DHT22;2229;48.708;9.706;2023-03-01T01:54:20;0.10;93.10
4433;DHT22;2229;48.708;9.706;2023-03-01T01:56:51;0.20;93.30
4433;DHT22;2229;48.708;9.706;2023-03-01T01:59:19;-0.20;93.20
4433;DHT22;2229;48.708;9.706;2023-03-01T02:01:50;0.20;93.20
4433;DHT22;2229;48.708;9.706;2023-03-01T02:04:17;0.40;93.30
4433;DHT22;2229;48.708;9.706;2023-03-01T02:06:51;0.20;93.30
4433;DHT22;2229;48.708;9.706;2023-03-01T02:09:21;0.10;93.40
4433;DHT22;2229;48.708;9.706;2023-03-01T02:11:51;0.00;93.40
4433;DHT22;2229;48.708;9.706;2023-03-01T02:14:18;0.30;93.40
4433;DHT22;2229;48.708;9.706;2023-03-01T02:16:46;0.20;93.40
4433;DHT22;2229;48.708;9.706;2023-03-01T02:19:23;0.10;93.40
4433;DHT22;2229;48.708;9.706;2023-03-01T02:21:59;0.10;93.50
4433;DHT22;2229;48.708;9.706;2023-03-01T02:24:33;0.10;93.50
4433;DHT22;2229;48.708;9.706;2023-03-01T02:27:10;0.30;93.70
4433;DHT22;2229;48.708;9.706;2023-03-01T02:29:39;0.30;93.50
4433;DHT22;2229;48.708;9.706;2023-03-01T02:32:12;-0.40;93.30
4433;DHT22;2229;48.708;9.706;2023-03-01T02:34:41;0.10;93.60
4433;DHT22;2229;48.708;9.706;2023-03-01T02:37:11;0.20;93.50
4433;DHT22;2229;48.708;9.706;2023-03-01T02:39:42;0.20;93.70
4433;DHT22;2229;48.708;9.706;2023-03-01T02:42:13;0.30;93.70
4433;DHT22;2229;48.708;9.706;2023-03-01T02:44:43;0.30;93.80
4433;DHT22;2229;48.708;9.706;2023-03-01T02:47:11;-0.10;93.30
4433;DHT22;2229;48.708;9.706;2023-03-01T02:49:38;0.40;93.80
4433;DHT22;2229;48.708;9.706;2023-03-01T02:52:28;0.10;93.60
4433;DHT22;2229;48.708;9.706;2023-03-01T02:55:00;0.00;92.90
4433;DHT22;2229;48.708;9.706;2023-03-01T02:57:30;0.20;93.80
4433;DHT22;2229;48.708;9.706;2023-03-01T03:00:03;0.20;93.80
4433;DHT22;2229;48.708;9.706;2023-03-01T03:02:35;0.10;93.80
4433;DHT22;2229;48.708;9.706;2023-03-01T03:05:28;0.20;93.80
4433;DHT22;2229;48.708;9.706;2023-03-01T03:07:57;0.10;93.90
4433;DHT22;2229;48.708;9.706;2023-03-01T03:10:29;0.20;93.90
4433;DHT22;2229;48.708;9.706;2023-03-01T03:12:58;0.30;94.00
4433;DHT22;2229;48.708;9.706;2023-03-01T03:15:28;0.20;93.90
4433;DHT22;2229;48.708;9.706;2023-03-01T03:17:56;0.20;94.00
4433;DHT22;2229;48.708;9.706;2023-03-01T03:20:26;0.20;93.90
4433;DHT22;2229;48.708;9.706;2023-03-01T03:22:56;0.40;94.10
4433;DHT22;2229;48.708;9.706;2023-03-01T03:25:25;0.10;93.80
4433;DHT22;2229;48.708;9.706;2023-03-01T03:27:53;0.60;94.20
4433;DHT22;2229;48.708;9.706;2023-03-01T03:30:24;0.30;94.20
4433;DHT22;2229;48.708;9.706;2023-03-01T03:32:53;0.30;94.10
4433;DHT22;2229;48.708;9.706;2023-03-01T03:35:23;0.30;94.00
4433;DHT22;2229;48.708;9.706;2023-03-01T03:37:51;0.20;94.00
4433;DHT22;2229;48.708;9.706;2023-03-01T03:40:33;0.40;94.10
4433;DHT22;2229;48.708;9.706;2023-03-01T03:43:03;0.00;93.80
4433;DHT22;2229;48.708;9.706;2023-03-01T03:45:32;0.20;93.90
4433;DHT22;2229;48.708;9.706;2023-03-01T03:48:03;0.20;93.80
4433;DHT22;2229;48.708;9.706;2023-03-01T03:50:31;0.30;94.00
4433;DHT22;2229;48.708;9.706;2023-03-01T03:53:00;0.20;93.90
4433;DHT22;2229;48.708;9.706;2023-03-01T03:55:28;0.30;93.90
4433;DHT22;2229;48.708;9.706;2023-03-01T03:57:58;0.30;93.90
4433;DHT22;2229;48.708;9.706;2023-03-01T04:00:28;0.40;94.00
4433;DHT22;2229;48.708;9.706;2023-03-01T04:02:55;0.50;93.90
4433;DHT22;2229;48.708;9.706;2023-03-01T04:05:26;0.30;93.80
4433;DHT22;2229;48.708;9.706;2023-03-01T04:07:54;0.90;94.00
4433;DHT22;2229;48.708;9.706;2023-03-01T04:10:28;0.60;94.00
4433;DHT22;2229;48.708;9.706;2023-03-01T04:12:56;0.50;93.90
4433;DHT22;2229;48.708;9.706;2023-03-01T04:15:25;0.40;93.80
4433;DHT22;2229;48.708;9.706;2023-03-01T04:17:54;0.30;93.70
4433;DHT22;2229;48.708;9.706;2023-03-01T04:20:23;0.40;94.00
4433;DHT22;2229;48.708;9.706;2023-03-01T04:22:56;0.30;93.80
4433;DHT22;2229;48.708;9.706;2023-03-01T04:25:25;0.50;93.90
4433;DHT22;2229;48.708;9.706;2023-03-01T04:27:53;0.60;93.80
4433;DHT22;2229;48.708;9.706;2023-03-01T04:30:20;0.40;93.90
4433;DHT22;2229;48.708;9.706;2023-03-01T04:32:51;0.50;93.70
4433;DHT22;2229;48.708;9.706;2023-03-01T04:35:18;0.50;94.00
4433;DHT22;2229;48.708;9.706;2023-03-01T04:37:46;0.40;94.00
4433;DHT22;2229;48.708;9.706;2023-03-01T04:40:15;0.40;94.00
4433;DHT22;2229;48.708;9.706;2023-03-01T04:42:42;0.40;93.90
4433;DHT22;2229;48.708;9.706;2023-03-01T04:45:10;0.40;94.00
4433;DHT22;2229;48.708;9.706;2023-03-01T04:47:40;0.50;94.10
4433;DHT22;2229;48.708;9.706;2023-03-01T04:50:09;0.40;94.10
4433;DHT22;2229;48.708;9.706;2023-03-01T04:52:37;0.50;93.80
4433;DHT22;2229;48.708;9.706;2023-03-01T04:55:06;0.50;94.10
4433;DHT22;2229;48.708;9.706;2023-03-01T04:57:35;0.30;94.00
4433;DHT22;2229;48.708;9.706;2023-03-01T05:00:03;0.30;94.00
4433;DHT22;2229;48.708;9.706;2023-03-01T05:02:47;0.40;93.80
4433;DHT22;2229;48.708;9.706;2023-03-01T05:05:20;0.40;94.00
4433;DHT22;2229;48.708;9.706;2023-03-01T05:07:52;0.40;94.10
4433;DHT22;2229;48.708;9.706;2023-03-01T05:10:19;1.00;94.40
4433;DHT22;2229;48.708;9.706;2023-03-01T05:12:48;0.50;94.10
4433;DHT22;2229;48.708;9.706;2023-03-01T05:15:16;0.30;94.10
4433;DHT22;2229;48.708;9.706;2023-03-01T05:17:43;0.40;94.10
4433;DHT22;2229;48.708;9.706;2023-03-01T05:20:12;0.60;94.20
4433;DHT22;2229;48.708;9.706;2023-03-01T05:22:39;-0.30;93.80
4433;DHT22;2229;48.708;9.706;2023-03-01T05:25:07;0.40;94.10
4433;DHT22;2229;48.708;9.706;2023-03-01T05:27:35;0.30;94.20
4433;DHT22;2229;48.708;9.706;2023-03-01T05:30:05;0.00;93.90
4433;DHT22;2229;48.708;9.706;2023-03-01T05:32:41;0.30;93.90
4433;DHT22;2229;48.708;9.706;2023-03-01T05:35:11;0.40;94.10
4433;DHT22;2229;48.708;9.706;2023-03-01T05:37:41;0.30;94.20
4433;DHT22;2229;48.708;9.706;2023-03-01T05:40:11;0.30;94.20
4433;DHT22;2229;48.708;9.706;2023-03-01T05:42:43;0.30;94.10
4433;DHT22;2229;48.708;9.706;2023-03-01T05:45:13;0.30;94.10
4433;DHT22;2229;48.708;9.706;2023-03-01T05:47:42;0.30;94.30
4433;DHT22;2229;48.708;9.706;2023-03-01T05:50:15;0.20;94.30
4433;DHT22;2229;48.708;9.706;2023-03-01T05:52:45;0.20;94.30
4433;DHT22;2229;48.708;9.706;2023-03-01T05:55:15;0.20;94.40
4433;DHT22;2229;48.708;9.706;2023-03-01T05:57:43;0.10;94.40
4433;DHT22;2229;48.708;9.706;2023-03-01T06:00:16;0.40;94.50
4433;DHT22;2229;48.708;9.706;2023-03-01T06:02:45;0.00;94.20
4433;DHT22;2229;48.708;9.706;2023-03-01T06:05:13;0.00;94.50
4433;DHT22;2229;48.708;9.706;2023-03-01T06:07:41;0.00;94.50
4433;DHT22;2229;48.708;9.706;2023-03-01T06:10:11;0.30;94.40
4433;DHT22;2229;48.708;9.706;2023-03-01T06:12:41;-0.20;94.50
4433;DHT22;2229;48.708;9.706;2023-03-01T06:15:15;0.20;94.60
4433;DHT22;2229;48.708;9.706;2023-03-01T06:17:44;-0.20;94.60
4433;DHT22;2229;48.708;9.706;2023-03-01T06:20:14;0.00;94.70
4433;DHT22;2229;48.708;9.706;2023-03-01T06:22:42;0.10;94.60
4433;DHT22;2229;48.708;9.706;2023-03-01T06:25:10;-0.20;94.50
4433;DHT22;2229;48.708;9.706;2023-03-01T06:27:38;0.00;94.80
4433;DHT22;2229;48.708;9.706;2023-03-01T06:30:07;0.10;94.80
4433;DHT22;2229;48.708;9.706;2023-03-01T06:32:38;0.00;94.40
4433;DHT22;2229;48.708;9.706;2023-03-01T06:35:08;0.20;94.70
4433;DHT22;2229;48.708;9.706;2023-03-01T06:37:36;0.10;94.70
4433;DHT22;2229;48.708;9.706;2023-03-01T06:40:04;0.20;94.80
4433;DHT22;2229;48.708;9.706;2023-03-01T06:42:34;0.10;94.70
4433;DHT22;2229;48.708;9.706;2023-03-01T06:45:02;0.20;95.10
4433;DHT22;2229;48.708;9.706;2023-03-01T06:47:30;0.20;94.80
4433;DHT22;2229;48.708;9.706;2023-03-01T06:49:58;0.40;94.90
4433;DHT22;2229;48.708;9.706;2023-03-01T06:52:25;0.40;94.80
4433;DHT22;2229;48.708;9.706;2023-03-01T06:54:53;0.30;94.50
4433;DHT22;2229;48.708;9.706;2023-03-01T06:57:22;0.60;94.80
4433;DHT22;2229;48.708;9.706;2023-03-01T06:59:50;0.50;94.70
4433;DHT22;2229;48.708;9.706;2023-03-01T07:02:18;0.70;94.70
4433;DHT22;2229;48.708;9.706;2023-03-01T07:04:45;0.70;94.60
4433;DHT22;2229;48.708;9.706;2023-03-01T07:07:14;0.80;94.30
4433;DHT22;2229;48.708;9.706;2023-03-01T07:09:41;0.70;94.70
4433;DHT22;2229;48.708;9.706;2023-03-01T07:12:09;0.90;94.00
4433;DHT22;2229;48.708;9.706;2023-03-01T07:14:36;0.90;94.30
4433;DHT22;2229;48.708;9.706;2023-03-01T07:17:03;1.10;94.30
4433;DHT22;2229;48.708;9.706;2023-03-01T07:19:30;1.50;94.20
4433;DHT22;2229;48.708;9.706;2023-03-01T07:21:58;1.50;94.00
4433;DHT22;2229;48.708;9.706;2023-03-01T07:24:26;1.50;93.80
4433;DHT22;2229;48.708;9.706;2023-03-01T07:26:54;2.00;93.80
4433;DHT22;2229;48.708;9.706;2023-03-01T07:29:21;2.40;93.30
4433;DHT22;2229;48.708;9.706;2023-03-01T07:31:48;3.10;92.30
4433;DHT22;2229;48.708;9.706;2023-03-01T07:34:15;4.10;91.20
4433;DHT22;2229;48.708;9.706;2023-03-01T07:36:45;5.00;89.90
4433;DHT22;2229;48.708;9.706;2023-03-01T07:39:13;6.10;87.80
4433;DHT22;2229;48.708;9.706;2023-03-01T07:41:41;7.00;83.20
4433;DHT22;2229;48.708;9.706;2023-03-01T07:44:09;8.00;81.70
4433;DHT22;2229;48.708;9.706;2023-03-01T07:46:36;8.80;81.10
4433;DHT22;2229;48.708;9.706;2023-03-01T07:49:04;9.00;78.50
4433;DHT22;2229;48.708;9.706;2023-03-01T07:51:31;10.90;76.70
4433;DHT22;2229;48.708;9.706;2023-03-01T07:54:01;11.10;74.80
4433;DHT22;2229;48.708;9.706;2023-03-01T07:56:28;12.10;72.80
4433;DHT22;2229;48.708;9.706;2023-03-01T07:58:59;12.70;70.90
4433;DHT22;2229;48.708;9.706;2023-03-01T08:01:26;13.00;69.80
4433;DHT22;2229;48.708;9.706;2023-03-01T08:03:53;13.40;68.10
4433;DHT22;2229;48.708;9.706;2023-03-01T08:06:21;13.70;68.10
4433;DHT22;2229;48.708;9.706;2023-03-01T08:08:48;14.20;66.20
4433;DHT22;2229;48.708;9.706;2023-03-01T08:11:15;14.40;64.60
4433;DHT22;2229;48.708;9.706;2023-03-01T08:13:43;14.70;63.60
4433;DHT22;2229;48.708;9.706;2023-03-01T08:16:14;14.40;61.80
4433;DHT22;2229;48.708;9.706;2023-03-01T08:18:41;15.10;61.50
4433;DHT22;2229;48.708;9.706;2023-03-01T08:21:11;15.20;59.30
4433;DHT22;2229;48.708;9.706;2023-03-01T08:23:39;15.00;58.60
4433;DHT22;2229;48.708;9.706;2023-03-01T08:26:07;15.60;59.30
4433;DHT22;2229;48.708;9.706;2023-03-01T08:28:36;15.70;59.00
4433;DHT22;2229;48.708;9.706;2023-03-01T08:31:14;16.00;57.70
4433;DHT22;2229;48.708;9.706;2023-03-01T08:33:43;16.20;57.10
4433;DHT22;2229;48.708;9.706;2023-03-01T08:36:20;16.30;57.20
4433;DHT22;2229;48.708;9.706;2023-03-01T08:38:47;16.70;55.80
4433;DHT22;2229;48.708;9.706;2023-03-01T08:41:14;16.40;54.60
4433;DHT22;2229;48.708;9.706;2023-03-01T08:43:41;16.50;55.20
4433;DHT22;2229;48.708;9.706;2023-03-01T08:46:09;16.20;55.10
4433;DHT22;2229;48.708;9.706;2023-03-01T08:48:38;16.20;55.50
4433;DHT22;2229;48.708;9.706;2023-03-01T08:51:10;16.40;55.10
4433;DHT22;2229;48.708;9.706;2023-03-01T08:53:39;16.60;55.10
4433;DHT22;2229;48.708;9.706;2023-03-01T08:56:07;16.30;54.40
4433;DHT22;2229;48.708;9.706;2023-03-01T08:58:35;16.20;54.20
4433;DHT22;2229;48.708;9.706;2023-03-01T09:01:07;16.10;53.60
4433;DHT22;2229;48.708;9.706;2023-03-01T09:03:34;15.80;54.00
4433;DHT22;2229;48.708;9.706;2023-03-01T09:06:07;15.80;54.20
4433;DHT22;2229;48.708;9.706;2023-03-01T09:08:35;15.80;54.30
4433;DHT22;2229;48.708;9.706;2023-03-01T09:11:03;16.10;53.70
4433;DHT22;2229;48.708;9.706;2023-03-01T09:13:31;15.80;52.50
4433;DHT22;2229;48.708;9.706;2023-03-01T09:15:59;15.90;54.00
4433;DHT22;2229;48.708;9.706;2023-03-01T09:18:27;16.00;54.20
4433;DHT22;2229;48.708;9.706;2023-03-01T09:21:00;16.00;53.90
4433;DHT22;2229;48.708;9.706;2023-03-01T09:23:29;16.00;53.40
4433;DHT22;2229;48.708;9.706;2023-03-01T09:25:56;16.20;53.20
4433;DHT22;2229;48.708;9.706;2023-03-01T09:28:23;16.30;53.80
4433;DHT22;2229;48.708;9.706;2023-03-01T09:30:51;16.70;52.80
4433;DHT22;2229;48.708;9.706;2023-03-01T09:33:18;17.10;52.20
4433;DHT22;2229;48.708;9.706;2023-03-01T09:35:45;17.10;51.20
4433;DHT22;2229;48.708;9.706;2023-03-01T09:38:13;17.10;50.90
4433;DHT22;2229;48.708;9.706;2023-03-01T09:40:44;16.90;50.90
4433;DHT22;2229;48.708;9.706;2023-03-01T09:43:20;16.70;50.70
4433;DHT22;2229;48.708;9.706;2023-03-01T09:45:50;16.60;50.80
4433;DHT22;2229;48.708;9.706;2023-03-01T09:48:22;16.10;51.10
4433;DHT22;2229;48.708;9.706;2023-03-01T09:50:51;15.80;51.50
4433;DHT22;2229;48.708;9.706;2023-03-01T09:53:20;15.70;51.50
4433;DHT22;2229;48.708;9.706;2023-03-01T09:55:54;15.80;51.70
4433;DHT22;2229;48.708;9.706;2023-03-01T09:58:40;16.20;52.10
4433;DHT22;2229;48.708;9.706;2023-03-01T10:01:28;16.40;51.00
4433;DHT22;2229;48.708;9.706;2023-03-01T10:04:12;16.30;50.70
4433;DHT22;2229;48.708;9.706;2023-03-01T10:06:44;16.40;51.20
4433;DHT22;2229;48.708;9.706;2023-03-01T10:09:16;16.50;51.80
4433;DHT22;2229;48.708;9.706;2023-03-01T10:11:50;16.70;51.20
4433;DHT22;2229;48.708;9.706;2023-03-01T10:14:28;16.60;50.80
4433;DHT22;2229;48.708;9.706;2023-03-01T10:16:59;16.60;50.80
4433;DHT22;2229;48.708;9.706;2023-03-01T10:19:32;16.30;50.60
4433;DHT22;2229;48.708;9.706;2023-03-01T10:22:03;16.00;51.00
4433;DHT22;2229;48.708;9.706;2023-03-01T10:24:34;16.00;51.60
4433;DHT22;2229;48.708;9.706;2023-03-01T10:27:07;15.90;51.20
4433;DHT22;2229;48.708;9.706;2023-03-01T10:29:41;15.80;50.70
4433;DHT22;2229;48.708;9.706;2023-03-01T10:32:12;16.00;51.00
4433;DHT22;2229;48.708;9.706;2023-03-01T10:34:40;15.80;51.00
4433;DHT22;2229;48.708;9.706;2023-03-01T10:37:13;15.70;51.10
4433;DHT22;2229;48.708;9.706;2023-03-01T10:40:03;15.70;51.50
4433;DHT22;2229;48.708;9.706;2023-03-01T10:42:38;15.90;51.10
4433;DHT22;2229;48.708;9.706;2023-03-01T10:45:32;16.20;51.10
4433;DHT22;2229;48.708;9.706;2023-03-01T10:48:14;16.20;50.30
4433;DHT22;2229;48.708;9.706;2023-03-01T10:50:42;16.00;50.10
4433;DHT22;2229;48.708;9.706;2023-03-01T10:53:25;16.20;50.40
4433;DHT22;2229;48.708;9.706;2023-03-01T10:56:00;15.80;50.50
4433;DHT22;2229;48.708;9.706;2023-03-01T10:58:32;15.60;50.90
4433;DHT22;2229;48.708;9.706;2023-03-01T11:01:00;15.40;51.20
4433;DHT22;2229;48.708;9.706;2023-03-01T11:03:29;15.40;51.20
4433;DHT22;2229;48.708;9.706;2023-03-01T11:06:01;15.70;50.50
4433;DHT22;2229;48.708;9.706;2023-03-01T11:08:37;15.50;51.00
4433;DHT22;2229;48.708;9.706;2023-03-01T11:11:13;15.40;51.50
4433;DHT22;2229;48.708;9.706;2023-03-01T11:13:54;15.30;51.00
4433;DHT22;2229;48.708;9.706;2023-03-01T11:16:27;15.20;50.90
4433;DHT22;2229;48.708;9.706;2023-03-01T11:21:55;14.50;52.30
4433;DHT22;2229;48.708;9.706;2023-03-01T11:24:33;14.20;52.60
4433;DHT22;2229;48.708;9.706;2023-03-01T11:27:04;14.00;52.20
4433;DHT22;2229;48.708;9.706;2023-03-01T11:29:38;13.80;52.70
4433;DHT22;2229;48.708;9.706;2023-03-01T11:32:09;13.40;52.70
4433;DHT22;2229;48.708;9.706;2023-03-01T11:34:45;13.30;53.90
4433;DHT22;2229;48.708;9.706;2023-03-01T11:37:23;13.30;54.70
4433;DHT22;2229;48.708;9.706;2023-03-01T11:40:02;13.30;55.30
4433;DHT22;2229;48.708;9.706;2023-03-01T11:42:42;13.20;55.20
4433;DHT22;2229;48.708;9.706;2023-03-01T11:45:13;13.30;54.80
4433;DHT22;2229;48.708;9.706;2023-03-01T11:48:06;13.20;55.20
4433;DHT22;2229;48.708;9.706;2023-03-01T11:50:43;12.90;55.60
4433;DHT22;2229;48.708;9.706;2023-03-01T11:53:35;12.80;56.10
4433;DHT22;2229;48.708;9.706;2023-03-01T11:56:16;12.80;56.70
4433;DHT22;2229;48.708;9.706;2023-03-01T11:59:01;12.60;56.80
4433;DHT22;2229;48.708;9.706;2023-03-01T12:01:43;12.60;57.00
4433;DHT22;2229;48.708;9.706;2023-03-01T12:07:25;12.30;56.80
4433;DHT22;2229;48.708;9.706;2023-03-01T12:10:10;12.20;58.00
4433;DHT22;2229;48.708;9.706;2023-03-01T12:13:03;12.20;58.20
4433;DHT22;2229;48.708;9.706;2023-03-01T12:16:03;12.10;57.50
4433;DHT22;2229;48.708;9.706;2023-03-01T12:19:02;12.00;57.50
4433;DHT22;2229;48.708;9.706;2023-03-01T12:21:46;11.90;58.00
4433;DHT22;2229;48.708;9.706;2023-03-01T12:24:40;11.50;59.00
4433;DHT22;2229;48.708;9.706;2023-03-01T12:27:28;11.30;58.70
4433;DHT22;2229;48.708;9.706;2023-03-01T12:30:05;11.30;59.90
4433;DHT22;2229;48.708;9.706;2023-03-01T12:32:49;11.20;60.20
4433;DHT22;2229;48.708;9.706;2023-03-01T12:35:33;11.10;60.70
4433;DHT22;2229;48.708;9.706;2023-03-01T12:38:19;11.30;61.00
4433;DHT22;2229;48.708;9.706;2023-03-01T12:41:13;11.40;61.30
4433;DHT22;2229;48.708;9.706;2023-03-01T12:43:56;11.30;61.70
4433;DHT22;2229;48.708;9.706;2023-03-01T12:46:34;10.70;60.90
4433;DHT22;2229;48.708;9.706;2023-03-01T12:49:07;10.90;61.50
4433;DHT22;2229;48.708;9.706;2023-03-01T12:51:38;10.80;61.80
4433;DHT22;2229;48.708;9.706;2023-03-01T12:54:14;11.00;61.50
4433;DHT22;2229;48.708;9.706;2023-03-01T12:56:42;10.90;62.10
4433;DHT22;2229;48.708;9.706;2023-03-01T12:59:21;10.80;62.10
4433;DHT22;2229;48.708;9.706;2023-03-01T13:01:54;11.00;61.90
4433;DHT22;2229;48.708;9.706;2023-03-01T13:04:31;11.10;61.80
4433;DHT22;2229;48.708;9.706;2023-03-01T13:07:15;11.00;61.90
4433;DHT22;2229;48.708;9.706;2023-03-01T13:09:50;11.00;62.40
4433;DHT22;2229;48.708;9.706;2023-03-01T13:12:45;10.90;62.10
4433;DHT22;2229;48.708;9.706;2023-03-01T13:15:32;10.70;61.00
4433;DHT22;2229;48.708;9.706;2023-03-01T13:18:01;10.80;63.00
4433;DHT22;2229;48.708;9.706;2023-03-01T13:20:33;10.60;63.30
4433;DHT22;2229;48.708;9.706;2023-03-01T13:23:10;10.40;63.40
4433;DHT22;2229;48.708;9.706;2023-03-01T13:26:01;10.70;63.90
4433;DHT22;2229;48.708;9.706;2023-03-01T13:28:39;10.40;62.80
4433;DHT22;2229;48.708;9.706;2023-03-01T13:31:09;10.30;64.10
4433;DHT22;2229;48.708;9.706;2023-03-01T13:33:44;9.70;64.70
4433;DHT22;2229;48.708;9.706;2023-03-01T13:36:47;10.20;64.50
4433;DHT22;2229;48.708;9.706;2023-03-01T13:39:31;9.90;64.50
4433;DHT22;2229;48.708;9.706;2023-03-01T13:41:59;10.20;65.70
4433;DHT22;2229;48.708;9.706;2023-03-01T13:44:30;10.00;65.40
4433;DHT22;2229;48.708;9.706;2023-03-01T13:47:02;9.80;66.60
4433;DHT22;2229;48.708;9.706;2023-03-01T13:49:36;10.00;65.90
4433;DHT22;2229;48.708;9.706;2023-03-01T13:52:31;9.80;67.50
4433;DHT22;2229;48.708;9.706;2023-03-01T13:55:00;9.50;65.90
4433;DHT22;2229;48.708;9.706;2023-03-01T13:57:33;9.60;67.70
4433;DHT22;2229;48.708;9.706;2023-03-01T14:00:01;9.80;68.20
4433;DHT22;2229;48.708;9.706;2023-03-01T14:02:31;9.60;68.00
4433;DHT22;2229;48.708;9.706;2023-03-01T14:05:00;9.60;68.00
4433;DHT22;2229;48.708;9.706;2023-03-01T14:07:28;9.80;67.90
4433;DHT22;2229;48.708;9.706;2023-03-01T14:09:58;9.50;68.00
4433;DHT22;2229;48.708;9.706;2023-03-01T14:12:39;9.50;68.00
4433;DHT22;2229;48.708;9.706;2023-03-01T14:15:17;9.50;68.60
4433;DHT22;2229;48.708;9.706;2023-03-01T14:18:02;9.60;68.40
4433;DHT22;2229;48.708;9.706;2023-03-01T14:20:37;9.50;68.60
4433;DHT22;2229;48.708;9.706;2023-03-01T14:23:10;9.70;68.60
4433;DHT22;2229;48.708;9.706;2023-03-01T14:25:46;9.40;68.10
4433;DHT22;2229;48.708;9.706;2023-03-01T14:28:17;9.50;68.50
4433;DHT22;2229;48.708;9.706;2023-03-01T14:30:46;9.40;68.60
4433;DHT22;2229;48.708;9.706;2023-03-01T14:33:22;9.50;68.70
4433;DHT22;2229;48.708;9.706;2023-03-01T14:35:55;9.00;68.30
4433;DHT22;2229;48.708;9.706;2023-03-01T14:38:29;9.40;68.60
4433;DHT22;2229;48.708;9.706;2023-03-01T14:40:59;9.60;68.90
4433;DHT22;2229;48.708;9.706;2023-03-01T14:43:30;9.50;69.10
4433;DHT22;2229;48.708;9.706;2023-03-01T14:45:58;9.30;68.50
4433;DHT22;2229;48.708;9.706;2023-03-01T14:48:27;9.40;68.70
4433;DHT22;2229;48.708;9.706;2023-03-01T14:50:56;9.30;68.80
4433;DHT22;2229;48.708;9.706;2023-03-01T14:53:26;9.20;68.80
4433;DHT22;2229;48.708;9.706;2023-03-01T14:55:56;9.30;68.70
4433;DHT22;2229;48.708;9.706;2023-03-01T14:58:32;9.30;68.80
4433;DHT22;2229;48.708;9.706;2023-03-01T15:01:01;9.60;69.10
4433;DHT22;2229;48.708;9.706;2023-03-01T15:03:32;9.30;68.80
4433;DHT22;2229;48.708;9.706;2023-03-01T15:06:02;9.10;68.40
4433;DHT22;2229;48.708;9.706;2023-03-01T15:08:31;9.30;68.70
4433;DHT22;2229;48.708;9.706;2023-03-01T15:11:03;9.50;68.90
4433;DHT22;2229;48.708;9.706;2023-03-01T15:13:34;9.40;68.80
4433;DHT22;2229;48.708;9.706;2023-03-01T15:16:07;9.50;68.70
4433;DHT22;2229;48.708;9.706;2023-03-01T15:18:36;9.40;67.00
4433;DHT22;2229;48.708;9.706;2023-03-01T15:21:09;9.60;68.70
4433;DHT22;2229;48.708;9.706;2023-03-01T15:23:37;9.20;68.70
4433;DHT22;2229;48.708;9.706;2023-03-01T15:26:16;9.30;68.80
4433;DHT22;2229;48.708;9.706;2023-03-01T15:28:52;9.30;68.90
4433;DHT22;2229;48.708;9.706;2023-03-01T15:31:23;9.60;69.50
4433;DHT22;2229;48.708;9.706;2023-03-01T15:33:51;9.30;69.10
4433;DHT22;2229;48.708;9.706;2023-03-01T15:36:39;9.00;68.40
4433;DHT22;2229;48.708;9.706;2023-03-01T15:39:33;9.00;68.90
4433;DHT22;2229;48.708;9.706;2023-03-01T15:42:04;8.90;67.70
4433;DHT22;2229;48.708;9.706;2023-03-01T15:44:35;8.90;69.40
4433;DHT22;2229;48.708;9.706;2023-03-01T15:47:08;8.90;69.30
4433;DHT22;2229;48.708;9.706;2023-03-01T15:49:52;8.80;69.70
4433;DHT22;2229;48.708;9.706;2023-03-01T15:52:24;8.80;69.40
4433;DHT22;2229;48.708;9.706;2023-03-01T15:54:56;8.70;69.70
4433;DHT22;2229;48.708;9.706;2023-03-01T15:57:23;8.70;69.70
4433;DHT22;2229;48.708;9.706;2023-03-01T15:59:52;8.60;69.80
4433;DHT22;2229;48.708;9.706;2023-03-01T16:02:19;8.50;69.80
4433;DHT22;2229;48.708;9.706;2023-03-01T16:04:47;8.70;70.40
4433;DHT22;2229;48.708;9.706;2023-03-01T16:07:15;8.50;70.30
4433;DHT22;2229;48.708;9.706;2023-03-01T16:09:43;8.50;70.30
4433;DHT22;2229;48.708;9.706;2023-03-01T16:12:13;8.30;70.40
4433;DHT22;2229;48.708;9.706;2023-03-01T16:14:42;8.30;71.00
4433;DHT22;2229;48.708;9.706;2023-03-01T16:17:10;8.30;71.00
4433;DHT22;2229;48.708;9.706;2023-03-01T16:19:38;8.30;70.90
4433;DHT22;2229;48.708;9.706;2023-03-01T16:22:06;8.50;71.50
4433;DHT22;2229;48.708;9.706;2023-03-01T16:24:34;8.30;71.50
4433;DHT22;2229;48.708;9.706;2023-03-01T16:27:01;8.10;71.00
4433;DHT22;2229;48.708;9.706;2023-03-01T16:29:29;8.10;71.60
4433;DHT22;2229;48.708;9.706;2023-03-01T16:31:56;8.20;71.80
4433;DHT22;2229;48.708;9.706;2023-03-01T16:34:27;8.00;72.00
4433;DHT22;2229;48.708;9.706;2023-03-01T16:36:55;7.80;72.10
4433;DHT22;2229;48.708;9.706;2023-03-01T16:39:22;7.90;72.40
4433;DHT22;2229;48.708;9.706;2023-03-01T16:41:49;7.90;72.70
4433;DHT22;2229;48.708;9.706;2023-03-01T16:44:16;7.60;72.70
4433;DHT22;2229;48.708;9.706;2023-03-01T16:46:43;7.50;72.70
4433;DHT22;2229;48.708;9.706;2023-03-01T16:49:10;7.80;73.20